Overview Statistics Trail Chart Weather Telemetry Raw packets
 

This is the latest recevied weather packets stored in our database for station/object N8BAP. If no packets are shown the sender has not sent any weather packets the latest 10 day(s).

<< 1 2 3 4 5 >>
Time Temp. Humidity Pressure Rain* Wind** Luminosity Snow
1788627190 29.44° C 67% 1019.8 hPa 0 mm - 655 W/m² -
1788626889 29.44° C 65% 1019.4 hPa 0 mm - 672 W/m² -
1788626584 28.89° C 66% 1019.4 hPa 0 mm - 482 W/m² -
1788626280 28.33° C 70% 1019.6 hPa 0 mm - 647 W/m² -
1788625976 28.33° C 71% 1019.5 hPa 0 mm - 642 W/m² -
1788625672 28.89° C 70% 1019.4 hPa 0 mm - 658 W/m² -
1788625371 28.33° C 71% 1019.4 hPa 0 mm - 583 W/m² -
1788625066 27.78° C 72% 1019.6 hPa 0 mm - 617 W/m² -
1788624765 27.78° C 72% 1019.7 hPa 0 mm - 619 W/m² -
1788624463 27.78° C 74% 1019.7 hPa 0 mm - 632 W/m² -
1788624158 27.78° C 75% 1019.6 hPa 0 mm - 680 W/m² -
1788623853 26.67° C 79% 1019.7 hPa 0 mm - 678 W/m² -
1788623551 26.67° C 75% 1019.8 hPa 0 mm - 672 W/m² -
1788623246 26.67° C 79% 1020 hPa 0 mm - 645 W/m² -
1788622941 27.22° C 76% 1019.9 hPa 0 mm - 623 W/m² -
1788622636 27.22° C 72% 1020 hPa 0 mm - 623 W/m² -
1788622332 27.22° C 75% 1019.9 hPa 0 mm - 593 W/m² -
1788622027 26.67° C 79% 1020.1 hPa 0 mm - 608 W/m² -
1788621721 25.56° C 80% 1019.8 hPa 0 mm - 587 W/m² -
1788621421 25.56° C 78% 1019.6 hPa 0 mm - 542 W/m² -
1788621117 25.56° C 80% 1019.7 hPa 0 mm - 485 W/m² -
1788620812 25° C 81% 1019.9 hPa 0 mm - 451 W/m² -
1788620511 25° C 81% 1020.1 hPa 0 mm - 426 W/m² -
1788620209 24.44° C 86% 1019.9 hPa 0 mm - 396 W/m² -
1788619909 24.44° C 86% 1019.9 hPa 0 mm - 322 W/m² -

* Rain latest hour (hover to see other rain measurements)
** Current wind speed in m/s (hover to see current wind gust speed)